createdAt,value
2017-06-04T00:01:31.502Z,20.98
2017-06-04T00:03:58.995Z,17.23
2017-06-04T00:06:26.543Z,17.30
2017-06-04T00:08:54.038Z,20.65
2017-06-04T00:11:21.538Z,17.15
2017-06-04T00:13:49.067Z,16.35
2017-06-04T00:16:16.626Z,16.37
2017-06-04T00:18:44.181Z,16.62
2017-06-04T00:21:11.726Z,16.65
2017-06-04T00:23:39.990Z,19.90
2017-06-04T00:26:07.578Z,20.65
2017-06-04T00:28:35.138Z,22.58
2017-06-04T00:31:02.703Z,18.50
2017-06-04T00:33:30.202Z,18.80
2017-06-04T00:35:58.127Z,19.23
2017-06-04T00:38:25.682Z,20.20
2017-06-04T00:40:53.250Z,22.23
2017-06-04T00:43:21.009Z,21.37
2017-06-04T00:45:48.570Z,21.40
2017-06-04T00:48:16.071Z,23.85
2017-06-04T00:50:43.690Z,22.17
2017-06-04T00:53:11.255Z,22.15
2017-06-04T00:55:38.810Z,23.00
2017-06-04T00:58:06.339Z,24.75
2017-06-04T01:00:34.634Z,25.40
2017-06-04T01:03:02.898Z,29.50
2017-06-04T01:05:31.194Z,30.52
2017-06-04T01:07:58.761Z,33.22
2017-06-04T01:10:26.322Z,34.80
2017-06-04T01:12:53.882Z,39.50
2017-06-04T01:15:21.442Z,41.10
2017-06-04T01:17:49.307Z,41.45
2017-06-04T01:20:16.805Z,43.83
2017-06-04T01:22:44.306Z,44.25
2017-06-04T01:25:12.711Z,48.30
2017-06-04T01:27:40.275Z,46.28
2017-06-04T01:30:07.839Z,49.65
2017-06-04T01:32:35.395Z,49.63
2017-06-04T01:35:02.955Z,49.70
2017-06-04T01:37:30.821Z,52.38
2017-06-04T01:39:58.388Z,56.25
2017-06-04T01:42:25.896Z,56.37
2017-06-04T01:44:53.603Z,56.28
2017-06-04T01:47:21.163Z,57.28
2017-06-04T01:49:48.724Z,58.58
2017-06-04T01:52:16.286Z,61.80
2017-06-04T01:54:43.848Z,70.68
2017-06-04T01:57:11.384Z,62.10
2017-06-04T01:59:38.964Z,69.72
2017-06-04T02:02:06.507Z,60.83
2017-06-04T02:04:34.019Z,59.20
2017-06-04T02:07:01.567Z,71.87
2017-06-04T02:09:29.104Z,67.37
2017-06-04T02:11:56.632Z,53.22
2017-06-04T02:14:25.039Z,53.78
2017-06-04T02:16:52.603Z,64.47
2017-06-04T02:19:20.165Z,71.22
2017-06-04T02:21:47.720Z,66.10
2017-06-04T02:24:15.292Z,62.80
2017-06-04T02:26:42.848Z,56.83
2017-06-04T02:29:10.356Z,60.03
2017-06-04T02:31:37.995Z,62.60
2017-06-04T02:34:05.508Z,54.55
2017-06-04T02:36:33.019Z,56.97
2017-06-04T02:39:00.644Z,48.67
2017-06-04T02:41:28.204Z,53.38
2017-06-04T02:43:55.707Z,55.60
2017-06-04T02:46:23.319Z,56.70
2017-06-04T02:48:50.879Z,58.28
2017-06-04T02:51:18.440Z,55.40
2017-06-04T02:53:46.819Z,49.78
2017-06-04T02:56:14.384Z,45.35
2017-06-04T02:58:41.944Z,43.45
2017-06-04T03:01:10.049Z,38.33
2017-06-04T03:03:37.555Z,40.30
2017-06-04T03:06:05.853Z,41.65
2017-06-04T03:08:33.414Z,37.95
2017-06-04T03:11:00.968Z,33.10
2017-06-04T03:13:28.607Z,32.63
2017-06-04T03:15:56.878Z,33.03
2017-06-04T03:18:25.163Z,32.75
2017-06-04T03:20:53.843Z,34.38
2017-06-04T03:23:21.348Z,30.00
2017-06-04T03:25:48.861Z,28.65
2017-06-04T03:28:17.264Z,31.30
2017-06-04T03:30:44.776Z,30.00
2017-06-04T03:33:12.280Z,30.48
2017-06-04T03:35:39.918Z,31.85
2017-06-04T03:38:08.199Z,32.00
2017-06-04T03:40:36.471Z,31.35
2017-06-04T03:43:04.876Z,29.45
2017-06-04T03:45:32.387Z,30.25
2017-06-04T03:47:59.892Z,29.35
2017-06-04T03:50:27.448Z,28.27
2017-06-04T03:52:54.952Z,35.30
2017-06-04T03:55:22.460Z,28.73
2017-06-04T03:57:50.000Z,24.00
2017-06-04T04:00:18.275Z,26.27
2017-06-04T04:02:45.779Z,24.73
2017-06-04T04:05:13.400Z,25.73
2017-06-04T04:07:41.676Z,23.83
2017-06-04T04:10:09.951Z,24.75
2017-06-04T04:12:38.776Z,27.17
2017-06-04T04:15:06.290Z,29.80
2017-06-04T04:17:33.796Z,27.17
2017-06-04T04:20:01.355Z,28.38
2017-06-04T04:22:28.864Z,29.73
2017-06-04T04:24:56.372Z,30.88
2017-06-04T04:27:23.925Z,27.67
2017-06-04T04:29:51.436Z,28.00
2017-06-04T04:32:18.951Z,31.02
2017-06-04T04:34:46.505Z,28.48
2017-06-04T04:37:14.011Z,27.60
2017-06-04T04:39:41.519Z,29.75
2017-06-04T04:42:09.156Z,30.12
2017-06-04T04:44:37.435Z,27.73
2017-06-04T04:47:05.708Z,28.58
2017-06-04T04:49:34.011Z,25.42
2017-06-04T04:52:01.511Z,28.75
2017-06-04T04:54:29.144Z,27.35
2017-06-04T04:56:56.668Z,28.27
2017-06-04T04:59:24.948Z,29.20
2017-06-04T05:01:53.251Z,27.37
2017-06-04T05:04:20.754Z,28.23
2017-06-04T05:06:48.264Z,29.95
2017-06-04T05:09:15.819Z,28.52
2017-06-04T05:11:43.323Z,29.48
2017-06-04T05:14:10.828Z,28.95
2017-06-04T05:16:39.140Z,31.25
2017-06-04T05:19:06.651Z,33.03
2017-06-04T05:21:34.923Z,31.55
2017-06-04T05:24:04.215Z,33.78
2017-06-04T05:26:31.724Z,31.50
2017-06-04T05:28:59.233Z,31.98
2017-06-04T05:31:26.840Z,35.33
2017-06-04T05:33:54.399Z,33.03
2017-06-04T05:36:21.907Z,33.10
2017-06-04T05:38:49.453Z,33.75
2017-06-04T05:41:16.962Z,32.72
2017-06-04T05:43:44.475Z,32.72
2017-06-04T05:46:12.023Z,31.45
2017-06-04T05:48:39.551Z,33.10
2017-06-04T05:51:07.131Z,31.25
2017-06-04T05:53:34.875Z,32.83
2017-06-04T05:56:02.388Z,31.08
2017-06-04T05:58:30.003Z,31.67
2017-06-04T06:00:57.547Z,30.02
2017-06-04T06:03:25.056Z,30.50
2017-06-04T06:05:52.567Z,30.98
2017-06-04T06:08:20.136Z,27.10
2017-06-04T06:10:47.652Z,29.92
2017-06-04T06:13:15.440Z,27.98
2017-06-04T06:15:43.039Z,29.55
2017-06-04T06:18:10.726Z,28.67
2017-06-04T06:20:39.482Z,30.52
2017-06-04T06:23:07.237Z,27.65
2017-06-04T06:25:35.014Z,25.23
2017-06-04T06:28:05.368Z,25.80
2017-06-04T06:30:33.204Z,25.67
2017-06-04T06:33:00.866Z,23.75
2017-06-04T06:35:28.734Z,23.95
2017-06-04T06:37:56.437Z,22.55
2017-06-04T06:40:25.201Z,24.17
2017-06-04T06:42:53.164Z,21.37
2017-06-04T06:45:20.918Z,23.75
2017-06-04T06:47:48.468Z,23.77
2017-06-04T06:50:16.037Z,24.23
2017-06-04T06:52:43.795Z,24.37
2017-06-04T06:55:11.352Z,24.98
2017-06-04T06:57:38.916Z,27.17
2017-06-04T07:00:06.575Z,25.12
2017-06-04T07:02:34.088Z,24.48
2017-06-04T07:05:02.411Z,24.30
2017-06-04T07:07:29.955Z,25.10
2017-06-04T07:09:57.532Z,24.67
2017-06-04T07:12:25.193Z,21.70
2017-06-04T07:14:52.756Z,18.85
2017-06-04T07:17:20.515Z,16.10
2017-06-04T07:19:48.027Z,13.60
2017-06-04T07:22:15.535Z,11.82
2017-06-04T07:24:43.399Z,12.70
2017-06-04T07:27:10.963Z,12.80
2017-06-04T07:29:38.523Z,14.10
2017-06-04T07:32:06.063Z,14.27
2017-06-04T07:34:33.649Z,16.70
2017-06-04T07:37:01.208Z,16.52
2017-06-04T07:39:28.763Z,15.57
2017-06-04T07:41:56.328Z,18.65
2017-06-04T07:44:23.884Z,16.87
2017-06-04T07:46:51.543Z,17.50
2017-06-04T07:49:19.055Z,19.27
2017-06-04T07:51:46.572Z,18.92
2017-06-04T07:54:14.122Z,21.75
2017-06-04T07:56:41.635Z,29.42
2017-06-04T07:59:09.959Z,32.70
2017-06-04T08:01:37.471Z,37.22
2017-06-04T08:04:04.984Z,38.80
2017-06-04T08:06:32.636Z,39.30
2017-06-04T08:09:00.200Z,43.55
2017-06-04T08:11:27.714Z,40.47
2017-06-04T08:13:56.134Z,43.08
2017-06-04T08:16:23.696Z,43.85
2017-06-04T08:18:51.212Z,45.17
2017-06-04T08:21:19.527Z,46.30
2017-06-04T08:23:47.040Z,41.97
2017-06-04T08:26:14.656Z,44.42
2017-06-04T08:28:42.316Z,44.20
2017-06-04T08:31:09.883Z,46.47
2017-06-04T08:33:37.435Z,44.40
2017-06-04T08:36:05.088Z,45.25
2017-06-04T08:38:32.659Z,52.78
2017-06-04T08:41:00.215Z,43.90
2017-06-04T08:43:27.879Z,43.00
2017-06-04T08:45:55.539Z,40.10
2017-06-04T08:48:23.105Z,39.58
2017-06-04T08:50:50.768Z,37.35
2017-06-04T08:53:18.327Z,37.88
2017-06-04T08:55:45.888Z,37.05
2017-06-04T08:58:13.443Z,30.25
2017-06-04T09:00:41.007Z,29.13
2017-06-04T09:03:08.519Z,26.12
2017-06-04T09:05:36.076Z,27.43
2017-06-04T09:08:03.587Z,26.53
2017-06-04T09:10:31.147Z,26.67
2017-06-04T09:12:58.768Z,24.00
2017-06-04T09:15:27.084Z,23.10
2017-06-04T09:17:54.648Z,24.57
2017-06-04T09:20:22.300Z,22.33
2017-06-04T09:22:49.963Z,20.62
2017-06-04T09:25:17.527Z,19.90
2017-06-04T09:27:45.083Z,18.25
2017-06-04T09:30:12.643Z,19.73
2017-06-04T09:32:40.211Z,19.42
2017-06-04T09:35:07.763Z,17.13
2017-06-04T09:37:35.329Z,19.73
2017-06-04T09:40:02.891Z,19.40
2017-06-04T09:42:30.433Z,19.95
2017-06-04T09:44:58.006Z,20.62
2017-06-04T09:47:25.523Z,21.48
2017-06-04T09:49:53.843Z,20.77
2017-06-04T09:52:21.404Z,19.60
2017-06-04T09:54:49.048Z,22.40
2017-06-04T09:57:16.624Z,21.07
2017-06-04T09:59:44.131Z,20.57
2017-06-04T10:02:11.848Z,21.97
2017-06-04T10:04:39.355Z,20.90
2017-06-04T10:07:06.864Z,18.70
2017-06-04T10:09:34.426Z,19.90
2017-06-04T10:12:01.989Z,20.73
2017-06-04T10:14:29.648Z,22.35
2017-06-04T10:16:57.207Z,57.67
2017-06-04T10:19:24.764Z,32.83
2017-06-04T10:21:52.315Z,26.00
2017-06-04T10:24:19.903Z,25.37
2017-06-04T10:26:47.452Z,21.23
2017-06-04T10:29:15.079Z,20.37
2017-06-04T10:31:43.390Z,17.07
2017-06-04T10:34:10.899Z,17.43
2017-06-04T10:36:38.503Z,15.67
2017-06-04T10:39:06.008Z,9.17
2017-06-04T10:41:33.512Z,9.20
2017-06-04T10:44:01.052Z,9.20
2017-06-04T10:46:29.365Z,11.13
2017-06-04T10:48:56.879Z,7.60
2017-06-04T10:51:25.196Z,8.80
2017-06-04T10:53:52.755Z,8.63
2017-06-04T10:56:20.263Z,8.43
2017-06-04T10:58:47.976Z,7.00
2017-06-04T11:01:15.515Z,7.50
2017-06-04T11:03:43.815Z,7.70
2017-06-04T11:06:11.376Z,7.53
2017-06-04T11:08:38.933Z,7.80
2017-06-04T11:11:06.500Z,7.63
2017-06-04T11:13:34.464Z,9.97
2017-06-04T11:16:01.967Z,8.30
2017-06-04T11:18:29.468Z,8.73
2017-06-04T11:20:57.044Z,7.57
2017-06-04T11:23:24.546Z,6.70
2017-06-04T11:25:52.057Z,11.60
2017-06-04T11:28:19.611Z,7.20
2017-06-04T11:30:47.120Z,9.13
2017-06-04T11:33:14.632Z,10.10
2017-06-04T11:35:42.195Z,10.50
2017-06-04T11:38:09.755Z,10.93
2017-06-04T11:40:37.321Z,11.33
2017-06-04T11:43:05.000Z,10.37
2017-06-04T11:45:32.545Z,9.67
2017-06-04T11:48:00.051Z,9.43
2017-06-04T11:50:27.767Z,11.23
2017-06-04T11:52:55.275Z,11.43
2017-06-04T11:55:22.781Z,10.53
2017-06-04T11:57:50.344Z,10.27
2017-06-04T12:00:17.906Z,9.17
2017-06-04T12:02:45.459Z,11.23
2017-06-04T12:05:13.020Z,10.30
2017-06-04T12:07:40.583Z,11.73
2017-06-04T12:10:08.144Z,11.57
2017-06-04T12:12:35.799Z,10.00
2017-06-04T12:15:03.363Z,13.00
2017-06-04T12:17:30.873Z,11.57
2017-06-04T12:19:58.494Z,12.37
2017-06-04T12:22:26.004Z,10.67
2017-06-04T12:24:53.508Z,10.73
2017-06-04T12:27:21.164Z,8.50
2017-06-04T12:29:48.719Z,9.20
2017-06-04T12:32:16.283Z,11.83
2017-06-04T12:34:43.843Z,8.60
2017-06-04T12:37:12.271Z,9.30
2017-06-04T12:39:39.828Z,9.57
2017-06-04T12:42:07.547Z,12.00
2017-06-04T12:44:35.108Z,9.87
2017-06-04T12:47:02.667Z,11.73
2017-06-04T12:49:31.108Z,10.20
2017-06-04T12:51:58.708Z,11.70
2017-06-04T12:54:26.371Z,11.50
2017-06-04T12:56:53.931Z,12.47
2017-06-04T12:59:21.444Z,11.20
2017-06-04T13:01:48.980Z,10.60
2017-06-04T13:04:16.511Z,11.57
2017-06-04T13:06:44.047Z,10.60
2017-06-04T13:09:12.319Z,8.20
2017-06-04T13:11:39.864Z,10.40
2017-06-04T13:14:07.363Z,9.50
2017-06-04T13:16:35.633Z,7.30
2017-06-04T13:19:03.956Z,10.33
2017-06-04T13:21:31.459Z,8.17
2017-06-04T13:23:59.728Z,8.10
2017-06-04T13:26:27.267Z,6.20
2017-06-04T13:28:54.771Z,6.28
2017-06-04T13:31:22.451Z,4.47
2017-06-04T13:33:50.018Z,5.65
2017-06-04T13:36:17.575Z,3.90
2017-06-04T13:38:45.088Z,3.35
2017-06-04T13:41:12.760Z,3.97
2017-06-04T13:43:41.035Z,3.42
2017-06-04T13:46:09.303Z,5.50
2017-06-04T13:48:36.843Z,3.75
2017-06-04T13:51:04.371Z,6.60
2017-06-04T13:53:31.931Z,4.77
2017-06-04T13:55:59.615Z,7.32
2017-06-04T13:58:27.180Z,6.57
2017-06-04T14:00:54.691Z,3.73
2017-06-04T14:03:22.307Z,5.07
2017-06-04T14:05:49.813Z,4.13
2017-06-04T14:08:17.419Z,4.67
2017-06-04T14:10:44.979Z,4.37
2017-06-04T14:13:12.479Z,6.63
2017-06-04T14:15:40.199Z,4.27
2017-06-04T14:18:07.759Z,4.37
2017-06-04T14:20:35.432Z,4.13
2017-06-04T14:23:02.983Z,4.63
2017-06-04T14:25:30.539Z,7.23
2017-06-04T14:27:58.098Z,3.43
2017-06-04T14:30:25.664Z,4.40
2017-06-04T14:32:53.222Z,3.27
2017-06-04T14:35:20.783Z,5.12
2017-06-04T14:37:48.343Z,5.20
2017-06-04T14:40:15.855Z,5.78
2017-06-04T14:42:43.473Z,4.62
2017-06-04T14:45:11.156Z,3.50
2017-06-04T14:47:38.663Z,4.22
2017-06-04T14:50:06.249Z,5.23
2017-06-04T14:52:33.809Z,4.37
2017-06-04T14:55:01.368Z,4.93
2017-06-04T14:57:28.875Z,4.20
2017-06-04T14:59:56.793Z,4.60
2017-06-04T15:02:24.351Z,4.37
2017-06-04T15:04:51.907Z,6.15
2017-06-04T15:07:19.568Z,5.70
2017-06-04T15:09:47.247Z,2.50
2017-06-04T15:12:15.012Z,6.10
2017-06-04T15:14:42.879Z,3.47
2017-06-04T15:17:10.645Z,6.10
2017-06-04T15:19:39.432Z,4.83
2017-06-04T15:22:07.127Z,4.87
2017-06-04T15:24:36.294Z,5.40
2017-06-04T15:27:04.091Z,3.93
2017-06-04T15:29:31.951Z,3.70
2017-06-04T15:32:00.435Z,4.07
2017-06-04T15:57:17.426Z,5.03
2017-06-04T15:59:44.995Z,5.87
2017-06-04T16:02:12.504Z,5.70
2017-06-04T16:04:40.051Z,5.67
2017-06-04T16:07:07.561Z,6.03
2017-06-04T16:09:35.129Z,7.27
2017-06-04T16:12:02.691Z,7.67
2017-06-04T16:14:30.248Z,5.50
2017-06-04T16:19:19.233Z,5.80
2017-06-04T16:21:46.887Z,5.20
2017-06-04T16:24:14.556Z,3.63
2017-06-04T16:26:42.116Z,4.40
2017-06-04T16:29:09.629Z,8.53
2017-06-04T16:31:37.233Z,3.73
2017-06-04T16:34:04.805Z,6.17
2017-06-04T16:36:32.347Z,5.00
2017-06-04T16:38:59.880Z,4.80
2017-06-04T16:41:28.218Z,4.70
2017-06-04T16:43:55.722Z,4.80
2017-06-04T16:46:24.035Z,7.97
2017-06-04T16:48:51.588Z,5.33
2017-06-04T16:51:19.251Z,4.50
2017-06-04T16:53:47.027Z,3.90
2017-06-04T16:56:14.571Z,5.17
2017-06-04T16:58:42.087Z,10.83
2017-06-04T17:01:09.960Z,5.53
2017-06-04T17:03:37.460Z,3.30
2017-06-04T17:06:04.969Z,2.87
2017-06-04T17:08:32.528Z,4.03
2017-06-04T17:11:03.180Z,5.60
2017-06-04T17:13:30.693Z,5.33
2017-06-04T17:15:58.240Z,7.47
2017-06-04T17:18:25.756Z,4.60
2017-06-04T17:20:54.087Z,4.87
2017-06-04T17:23:21.636Z,5.20
2017-06-04T17:25:49.505Z,4.80
2017-06-04T17:28:17.228Z,3.20
2017-06-04T17:30:45.519Z,5.37
2017-06-04T17:33:13.102Z,5.50
2017-06-04T17:35:42.264Z,3.67
2017-06-04T17:38:10.578Z,4.47
2017-06-04T17:40:38.093Z,3.13
2017-06-04T17:43:05.784Z,4.53
2017-06-04T17:45:33.352Z,3.67
2017-06-04T17:48:00.864Z,5.23
2017-06-04T17:50:28.554Z,4.73
2017-06-04T17:52:56.396Z,3.90
2017-06-04T17:55:23.982Z,3.47
2017-06-04T17:57:51.484Z,4.43
2017-06-04T18:00:19.268Z,5.63
2017-06-04T18:02:46.829Z,5.00
2017-06-04T18:05:14.328Z,3.50
2017-06-04T18:07:42.866Z,6.77
2017-06-04T18:10:10.404Z,8.20
2017-06-04T18:12:37.954Z,9.50
2017-06-04T18:15:05.464Z,8.37
2017-06-04T18:17:33.017Z,7.63
2017-06-04T18:20:00.584Z,5.30
2017-06-04T18:22:28.712Z,4.80
2017-06-04T18:24:57.035Z,7.40
2017-06-04T18:27:24.897Z,3.67
2017-06-04T18:29:52.417Z,4.13
2017-06-04T18:32:20.731Z,4.83
2017-06-04T18:34:48.508Z,7.50
2017-06-04T18:37:16.029Z,3.03
2017-06-04T18:39:43.540Z,7.63
2017-06-04T18:42:11.338Z,3.80
2017-06-04T18:44:38.861Z,7.40
2017-06-04T18:47:06.432Z,5.87
2017-06-04T18:49:33.973Z,4.60
2017-06-04T18:52:01.971Z,4.00
2017-06-04T18:54:29.641Z,3.53
2017-06-04T18:56:57.313Z,7.35
2017-06-04T18:59:24.829Z,4.00
2017-06-04T19:01:52.404Z,5.60
2017-06-04T19:04:19.921Z,4.87
2017-06-04T19:06:48.256Z,8.40
2017-06-04T19:09:15.768Z,2.60
2017-06-04T19:11:44.251Z,8.33
2017-06-04T19:14:11.803Z,3.53
2017-06-04T19:16:39.381Z,8.07
2017-06-04T19:19:06.959Z,5.47
2017-06-04T19:21:34.507Z,4.35
2017-06-04T19:24:02.019Z,4.70
2017-06-04T19:26:30.597Z,5.47
2017-06-04T19:28:58.132Z,5.32
2017-06-04T19:31:25.648Z,4.78
2017-06-04T19:33:53.209Z,8.48
2017-06-04T19:36:20.715Z,4.80
2017-06-04T19:38:48.849Z,6.68
2017-06-04T19:41:16.919Z,4.18
2017-06-04T19:43:44.482Z,3.58
2017-06-04T19:46:12.141Z,2.97
2017-06-04T19:48:39.679Z,2.60
2017-06-04T19:51:07.192Z,10.35
2017-06-04T19:53:34.772Z,4.60
2017-06-04T19:56:02.312Z,3.20
2017-06-04T19:58:29.986Z,4.28
2017-06-04T20:00:57.562Z,4.25
2017-06-04T20:03:25.103Z,9.05
2017-06-04T20:05:52.737Z,2.65
2017-06-04T20:08:20.327Z,2.75
2017-06-04T20:10:47.909Z,4.50
2017-06-04T20:13:15.693Z,1.85
2017-06-04T20:15:43.486Z,3.10
2017-06-04T20:18:11.018Z,5.28
2017-06-04T20:20:39.446Z,1.95
2017-06-04T20:23:06.997Z,2.70
2017-06-04T20:25:34.589Z,1.58
2017-06-04T20:28:05.925Z,6.10
2017-06-04T20:30:33.701Z,5.12
2017-06-04T20:33:01.359Z,4.40
2017-06-04T20:35:29.104Z,2.90
2017-06-04T20:37:56.669Z,3.17
2017-06-04T20:40:24.225Z,2.70
2017-06-04T20:42:52.008Z,4.62
2017-06-04T20:45:19.551Z,9.43
2017-06-04T20:47:47.210Z,3.92
2017-06-04T20:50:15.385Z,5.12
2017-06-04T20:52:42.970Z,2.97
2017-06-04T20:55:10.532Z,3.40
2017-06-04T20:57:38.344Z,3.05
2017-06-04T21:00:05.917Z,4.15
2017-06-04T21:02:33.523Z,4.00
2017-06-04T21:05:01.156Z,1.65
2017-06-04T21:07:28.741Z,3.15
2017-06-04T21:09:56.332Z,4.28
2017-06-04T21:12:24.002Z,3.17
2017-06-04T21:14:51.577Z,3.90
2017-06-04T21:17:19.960Z,3.42
2017-06-04T21:19:48.338Z,4.35
2017-06-04T21:22:15.952Z,2.60
2017-06-04T21:24:43.535Z,5.90
2017-06-04T21:27:11.153Z,2.67
2017-06-04T21:29:38.842Z,4.20
2017-06-04T21:32:06.609Z,1.55
2017-06-04T21:34:34.265Z,2.28
2017-06-04T21:37:01.827Z,1.85
2017-06-04T21:39:29.389Z,2.00
2017-06-04T21:41:56.901Z,4.82
2017-06-04T21:44:25.221Z,4.75
2017-06-04T21:46:52.881Z,8.00
2017-06-04T21:49:20.441Z,4.05
2017-06-04T21:51:48.005Z,4.70
2017-06-04T21:54:15.660Z,5.28
2017-06-04T21:56:43.220Z,3.50
2017-06-04T21:59:11.529Z,2.85
2017-06-04T22:01:39.082Z,3.75
2017-06-04T22:04:06.589Z,3.15
2017-06-04T22:06:34.113Z,5.85
2017-06-04T22:09:01.773Z,5.47
2017-06-04T22:11:29.284Z,3.15
2017-06-04T22:13:56.793Z,2.60
2017-06-04T22:16:24.458Z,3.37
2017-06-04T22:18:52.008Z,3.80
2017-06-04T22:21:19.579Z,3.75
2017-06-04T22:23:47.444Z,3.65
2017-06-04T22:26:14.949Z,2.55
2017-06-04T22:28:42.459Z,6.12
2017-06-04T22:31:10.119Z,4.65
2017-06-04T22:33:37.786Z,6.03
2017-06-04T22:36:05.442Z,4.15
2017-06-04T22:38:33.006Z,4.70
2017-06-04T22:41:00.517Z,4.35
2017-06-04T22:43:28.841Z,4.12
2017-06-04T22:45:56.401Z,3.45
2017-06-04T22:48:23.941Z,6.47
2017-06-04T22:50:51.449Z,2.10
2017-06-04T22:53:18.989Z,2.42
2017-06-04T22:55:46.637Z,3.62
2017-06-04T22:58:14.203Z,4.50
2017-06-04T23:00:41.745Z,2.50
2017-06-04T23:03:09.270Z,2.65
2017-06-04T23:05:37.692Z,4.18
2017-06-04T23:08:05.358Z,2.53
2017-06-04T23:10:32.872Z,2.92
2017-06-04T23:13:01.298Z,2.62
2017-06-04T23:15:28.812Z,3.10
2017-06-04T23:17:57.085Z,3.55
2017-06-04T23:20:25.016Z,2.45
2017-06-04T23:22:52.678Z,3.45
2017-06-04T23:25:21.167Z,3.30
2017-06-04T23:27:49.022Z,2.87
2017-06-04T23:30:16.682Z,3.05
2017-06-04T23:32:44.437Z,3.08
2017-06-04T23:35:12.401Z,3.08
2017-06-04T23:37:39.909Z,2.55
2017-06-04T23:40:07.417Z,4.22
2017-06-04T23:42:34.955Z,2.65
2017-06-04T23:45:02.465Z,1.83
2017-06-04T23:47:29.967Z,2.17
2017-06-04T23:49:58.268Z,1.90
2017-06-04T23:52:25.827Z,2.92
2017-06-04T23:54:53.339Z,3.78
2017-06-04T23:57:20.876Z,3.55
2017-06-04T23:59:48.509Z,2.95
